Search for airport 
image banner adimage banner adimage banner ad
image banner ad

PN62 - Cataney

Located in Midway, United States

ICAO - PN62, IATA -

Data provided by Airmate  

General information

Coordinates: N40°22'30" W80°17'59"
Elevation is 1200 feet MSL.
Magnetic variation is -07° East
View others Airports in Pennsylvania

Operational data

Special qualification required
Current time UTC:
Current local time:
Weather at : KPIT - Pittsburgh Intl ( 14 km )
METAR: KPIT 131951Z 26005KT 10SM SCT045 BKN055 BKN200 29/18 A2983 RMK AO2 LTG DSNT SE SLP100 T02890178 $
TAF: KPIT 131720Z 1318/1424 28005KT P6SM VCTS BKN050CB TEMPO 1319/1322 4SM -TSRA OVC040CB FM132300 24005KT P6SM SCT060 FM141800 26006KT P6SM VCTS BKN045CB
View NOTAMs / SUP AIP / TFR affecting this airport [VIEW]
Communications frequencies: [VIEW]

Runways:

RWY identifierQFULength (ft)Width (ft)SurfaceLDA (ft)
121300100GRASS
301300100GRASS

Airport contact information

Address: Midway United States

Satellite view of PN62